KRPJ

Rochelle Municipal-Koritz Field Airport

Rochelle, Illinois, USA
METAR KRPJ 182335Z AUTO 00000KT 10SM CLR 26/21 A2999 RMK AO2 T02550213
Observed Flight Rules
Aug-18 @ 23:35 UTC (12 minutes ago) Visual Flight Rules
Visibility Clouds
10 miles
  • Clear skies
Temperatures Readings
Current 26°C / 79°F
Dewpoint 21°C / 70°F
Humidity 74%
Altimeter 29.99" Hg
Pressure 1016 hPa
Elevation 238
METAR KRPJ 182335Z AUTO 00000KT 10SM CLR 26/21 A2999 RMK AO2 T02550213
Observed Flight Rules
Aug-18 @ 23:35 UTC
(12 minutes ago)
VFR
Clouds
  • Clear skies
Temperature Dewpoint
26°C / 79°F 21°C / 70°F
Humidity Altimeter Pressure
74% 29.99" Hg 1016 hPa